Time;durP1;ratioP1;P1;durP2;ratioP2;P2;SDS_P1;SDS_P2;PMS_P1;PMS_P2;Temp;Humidity;BMP_temperature;BMP_pressure;BME280_temperature;BME280_humidity;BME280_pressure;Samples;Min_cycle;Max_cycle;Signal;HPM_P1;HPM_P2
2021/06/20 00:02:02;;;;;;;12.60;10.85;;;;;;;;;;3593835;40;20633;-70
2021/06/20 00:04:28;;;;;;;10.10;9.30;;;;;;;;;;3596329;39;20440;-70
2021/06/20 00:06:56;;;;;;;10.25;9.18;;;;;;;;;;3585702;40;20402;-69
2021/06/20 00:09:22;;;;;;;10.20;9.20;;;;;;;;;;3596016;40;20401;-69
2021/06/20 00:11:49;;;;;;;9.90;8.90;;;;;;;;;;3596574;39;20673;-69
2021/06/20 00:14:15;;;;;;;10.73;9.73;;;;;;;;;;3596878;39;20457;-70
2021/06/20 00:16:42;;;;;;;10.73;9.75;;;;;;;;;;3596574;40;20611;-70
2021/06/20 00:19:08;;;;;;;11.50;10.40;;;;;;;;;;3595763;40;20780;-69
2021/06/20 00:21:35;;;;;;;10.35;9.38;;;;;;;;;;3596028;39;20781;-69
2021/06/20 00:24:02;;;;;;;12.13;10.98;;;;;;;;;;3596526;39;20385;-69
2021/06/20 00:26:29;;;;;;;13.40;12.00;;;;;;;;;;3596931;39;20368;-69
2021/06/20 00:28:55;;;;;;;12.38;11.27;;;;;;;;;;3596627;40;20387;-69
2021/06/20 00:31:21;;;;;;;10.93;9.93;;;;;;;;;;3595757;40;20385;-69
2021/06/20 00:33:47;;;;;;;10.82;9.82;;;;;;;;;;3595428;40;20392;-69
2021/06/20 00:36:13;;;;;;;11.55;10.48;;;;;;;;;;3596530;40;20675;-69
2021/06/20 00:38:40;;;;;;;10.93;9.93;;;;;;;;;;3596620;40;20753;-69
2021/06/20 00:41:07;;;;;;;12.55;11.30;;;;;;;;;;3597194;40;20441;-69
2021/06/20 00:43:34;;;;;;;12.85;11.70;;;;;;;;;;3584696;40;20470;-69
2021/06/20 00:46:00;;;;;;;14.32;12.90;;;;;;;;;;3584666;40;20382;-69
2021/06/20 00:48:26;;;;;;;13.63;12.25;;;;;;;;;;3584718;40;20424;-69
2021/06/20 00:50:52;;;;;;;13.70;12.50;;;;;;;;;;3584817;40;20375;-69
2021/06/20 00:53:20;;;;;;;14.32;12.90;;;;;;;;;;3584858;40;20382;-70
2021/06/20 00:55:50;;;;;;;13.80;12.45;;;;;;;;;;3584331;40;20780;-69
2021/06/20 00:58:19;;;;;;;13.90;12.23;;;;;;;;;;3584868;40;20704;-69
2021/06/20 01:00:45;;;;;;;11.00;10.07;;;;;;;;;;3584787;40;20752;-69
2021/06/20 01:03:11;;;;;;;11.32;10.15;;;;;;;;;;3573050;40;20397;-70
2021/06/20 01:05:37;;;;;;;12.48;10.68;;;;;;;;;;3576236;40;20409;-69
2021/06/20 01:08:04;;;;;;;11.75;10.70;;;;;;;;;;3584243;40;20406;-70
2021/06/20 01:10:35;;;;;;;10.70;9.70;;;;;;;;;;3584740;40;20394;-69
2021/06/20 01:13:02;;;;;;;10.63;9.63;;;;;;;;;;3584346;40;20382;-69
2021/06/20 01:15:30;;;;;;;12.17;11.07;;;;;;;;;;3602203;39;20465;-69
2021/06/20 01:17:56;;;;;;;10.52;9.52;;;;;;;;;;3604693;39;20431;-69
2021/06/20 01:20:22;;;;;;;10.50;9.60;;;;;;;;;;3602652;39;20799;-69
2021/06/20 01:22:51;;;;;;;10.93;9.80;;;;;;;;;;3601649;39;20484;-69
2021/06/20 01:25:18;;;;;;;11.60;10.50;;;;;;;;;;3604573;39;20375;-69
2021/06/20 01:27:45;;;;;;;11.13;9.95;;;;;;;;;;3604649;39;20391;-69
2021/06/20 01:30:13;;;;;;;10.80;9.70;;;;;;;;;;3604476;39;20405;-69
2021/06/20 01:32:39;;;;;;;10.88;9.65;;;;;;;;;;3604279;39;20395;-69
2021/06/20 01:35:06;;;;;;;10.13;9.23;;;;;;;;;;3604702;39;20375;-69
2021/06/20 01:37:32;;;;;;;10.80;9.70;;;;;;;;;;3595964;39;20383;-69
2021/06/20 01:39:59;;;;;;;10.47;9.57;;;;;;;;;;3596768;39;20751;-69
2021/06/20 01:42:26;;;;;;;10.70;9.60;;;;;;;;;;3596027;39;20392;-69
2021/06/20 01:44:53;;;;;;;10.68;9.70;;;;;;;;;;3596192;39;20375;-69
2021/06/20 01:47:21;;;;;;;10.67;9.63;;;;;;;;;;3594802;40;20416;-69
2021/06/20 01:49:47;;;;;;;10.55;9.55;;;;;;;;;;3594910;40;20479;-69
2021/06/20 01:52:17;;;;;;;12.05;10.85;;;;;;;;;;3603364;39;20403;-70
2021/06/20 01:54:50;;;;;;;12.95;11.73;;;;;;;;;;3592846;40;20368;-70
2021/06/20 01:57:18;;;;;;;13.13;11.73;;;;;;;;;;3595956;40;20723;-69
2021/06/20 01:59:44;;;;;;;11.35;10.05;;;;;;;;;;3594936;40;20679;-69
2021/06/20 02:02:10;;;;;;;14.60;13.10;;;;;;;;;;3595868;40;20400;-70
2021/06/20 02:04:36;;;;;;;14.45;12.95;;;;;;;;;;3596355;39;20397;-70
2021/06/20 02:07:02;;;;;;;11.90;10.70;;;;;;;;;;3594987;40;20396;-69
2021/06/20 02:09:29;;;;;;;11.35;10.25;;;;;;;;;;3594729;40;20668;-69
2021/06/20 02:11:55;;;;;;;13.00;11.63;;;;;;;;;;3590859;40;20396;-69
2021/06/20 02:14:22;;;;;;;12.45;10.93;;;;;;;;;;3594883;40;20468;-68
2021/06/20 02:16:48;;;;;;;13.75;12.32;;;;;;;;;;3595780;40;20392;-68
2021/06/20 02:19:15;;;;;;;11.18;10.18;;;;;;;;;;3596052;40;20353;-69
2021/06/20 02:21:41;;;;;;;13.13;11.45;;;;;;;;;;3604374;39;20413;-68
2021/06/20 02:24:07;;;;;;;11.20;10.20;;;;;;;;;;3613330;39;20631;-68
2021/06/20 02:26:34;;;;;;;11.20;10.20;;;;;;;;;;3601879;39;20659;-68
2021/06/20 02:29:00;;;;;;;13.63;11.93;;;;;;;;;;3611254;39;20383;-68
2021/06/20 02:31:27;;;;;;;13.05;11.88;;;;;;;;;;3602774;39;20399;-68
2021/06/20 02:33:53;;;;;;;12.00;11.00;;;;;;;;;;3615666;39;20366;-68
2021/06/20 02:36:20;;;;;;;13.38;10.57;;;;;;;;;;3617600;39;20611;-68
2021/06/20 02:38:46;;;;;;;10.77;9.27;;;;;;;;;;3607419;39;20527;-69
2021/06/20 02:41:12;;;;;;;11.38;9.15;;;;;;;;;;3604036;39;20395;-68
2021/06/20 02:43:38;;;;;;;14.43;10.10;;;;;;;;;;3604745;39;20401;-69
2021/06/20 02:46:04;;;;;;;12.70;9.80;;;;;;;;;;3613846;39;20386;-68
2021/06/20 02:48:32;;;;;;;11.75;10.50;;;;;;;;;;3611208;39;20392;-68
2021/06/20 02:50:58;;;;;;;11.57;10.50;;;;;;;;;;3610753;39;20381;-68
2021/06/20 02:53:24;;;;;;;11.43;9.97;;;;;;;;;;3608966;39;20366;-68
2021/06/20 02:55:51;;;;;;;10.57;9.57;;;;;;;;;;3594786;39;20479;-68
2021/06/20 02:58:17;;;;;;;10.63;9.63;;;;;;;;;;3594791;39;20470;-68
2021/06/20 03:00:43;;;;;;;12.80;10.55;;;;;;;;;;3608582;39;20385;-69
2021/06/20 03:03:09;;;;;;;13.82;11.40;;;;;;;;;;3610580;39;20726;-67
2021/06/20 03:05:37;;;;;;;15.02;12.57;;;;;;;;;;3603260;39;20405;-68
2021/06/20 03:08:03;;;;;;;14.88;12.55;;;25.00;99.90;;;;;;3610369;39;20398;-68
2021/06/20 03:10:29;;;;;;;14.63;12.27;;;;;;;;;;3604934;39;20397;-68
2021/06/20 03:12:55;;;;;;;14.10;12.63;;;;;;;;;;3615330;39;20699;-68
2021/06/20 03:15:21;;;;;;;14.05;12.55;;;;;;;;;;3610700;39;20440;-68
2021/06/20 03:17:47;;;;;;;13.15;11.63;;;;;;;;;;3611630;39;20381;-68
2021/06/20 03:20:14;;;;;;;15.38;13.20;;;;;;;;;;3616051;39;20357;-68
2021/06/20 03:22:42;;;;;;;15.15;12.40;;;;;;;;;;3607462;39;20407;-67
2021/06/20 03:25:09;;;;;;;11.77;10.27;;;;;;;;;;3617307;39;20459;-68
2021/06/20 03:27:35;;;;;;;12.65;11.40;;;;;;;;;;3610742;39;20393;-69
2021/06/20 03:30:01;;;;;;;10.30;9.30;;;;;;;;;;3614480;39;20353;-69
2021/06/20 03:32:27;;;;;;;11.60;10.18;;;;;;;;;;3616664;39;20377;-68
2021/06/20 03:34:53;;;;;;;11.63;10.52;;;21.80;99.90;;;;;;3607478;39;20401;-68
2021/06/20 03:37:19;;;;;;;10.88;9.88;;;22.10;99.90;;;;;;3602436;39;20396;-67
2021/06/20 03:39:46;;;;;;;12.20;10.90;;;22.10;99.90;;;;;;3616395;39;20421;-68
2021/06/20 03:42:12;;;;;;;12.25;10.68;;;22.10;99.90;;;;;;3602063;39;20493;-67
2021/06/20 03:44:38;;;;;;;11.73;10.63;;;22.00;99.90;;;;;;3609757;39;20381;-68
2021/06/20 03:47:05;;;;;;;11.23;10.15;;;22.00;99.90;;;;;;3607722;39;20398;-67
2021/06/20 03:49:30;;;;;;;11.75;10.57;;;22.00;99.90;;;;;;3610651;39;20356;-67
2021/06/20 03:51:56;;;;;;;11.07;10.13;;;22.00;99.90;;;;;;3609137;39;20385;-68
2021/06/20 03:54:24;;;;;;;12.70;11.50;;;21.90;99.90;;;;;;3609128;39;20402;-68
2021/06/20 03:56:52;;;;;;;13.00;11.60;;;22.00;99.90;;;;;;3601180;39;20780;-68
2021/06/20 03:59:18;;;;;;;14.00;12.65;;;21.90;99.90;;;;;;3607314;39;20763;-68
2021/06/20 04:01:44;;;;;;;12.88;11.70;;;21.80;99.90;;;;;;3605591;39;20417;-68
2021/06/20 04:04:10;;;;;;;14.85;13.35;;;21.80;99.90;;;;;;3594291;39;20796;-68
2021/06/20 04:06:36;;;;;;;14.10;12.48;;;21.70;99.90;;;;;;3614829;39;20488;-68
2021/06/20 04:09:02;;;;;;;14.57;13.07;;;21.50;99.90;;;;;;3607319;39;20517;-68
2021/06/20 04:11:28;;;;;;;12.87;11.47;;;21.50;99.90;;;;;;3615777;39;20436;-69
2021/06/20 04:13:56;;;;;;;11.55;10.43;;;21.60;99.90;;;;;;3610703;39;20486;-68
2021/06/20 04:16:22;;;;;;;13.25;11.82;;;21.70;99.90;;;;;;3614179;39;20611;-67
2021/06/20 04:18:47;;;;;;;12.53;11.23;;;21.70;99.90;;;;;;3612919;39;20380;-68
2021/06/20 04:21:13;;;;;;;14.77;12.47;;;21.80;99.90;;;;;;3616507;39;20393;-67
2021/06/20 04:23:39;;;;;;;13.90;12.45;;;21.80;99.90;;;;;;3602589;39;20430;-68
2021/06/20 04:26:05;;;;;;;14.82;13.18;;;21.60;99.90;;;;;;3608764;39;20379;-67
2021/06/20 04:28:31;;;;;;;14.80;13.27;;;21.60;99.90;;;;;;3600942;39;20390;-68
2021/06/20 04:30:59;;;;;;;12.45;11.18;;;21.60;99.90;;;;;;3607725;39;20371;-68
2021/06/20 04:33:25;;;;;;;13.23;11.98;;;21.60;99.90;;;;;;3590805;39;20760;-68
2021/06/20 04:35:52;;;;;;;14.82;13.40;;;21.70;99.90;;;;;;3601859;39;20375;-67
2021/06/20 04:38:18;;;;;;;13.25;11.95;;;21.70;99.90;;;;;;3609399;39;20371;-68
2021/06/20 04:40:44;;;;;;;13.68;12.38;;;21.70;99.90;;;;;;3598330;39;20435;-68
2021/06/20 04:43:23;;;;;;;13.20;11.90;;;21.80;99.90;;;;;;3606296;39;20396;-68
2021/06/20 04:45:49;;;;;;;12.03;10.93;;;;;;;;;;3599349;39;20382;-68
2021/06/20 04:48:17;;;;;;;12.05;10.95;;;;;;;;;;3612862;39;20906;-68
2021/06/20 04:50:43;;;;;;;11.68;10.68;;;;;;;;;;3606978;39;20414;-68
2021/06/20 04:53:09;;;;;;;11.67;10.53;;;;;;;;;;3598580;39;20403;-68
2021/06/20 04:55:35;;;;;;;10.98;9.88;;;;;;;;;;3600448;39;20376;-68
2021/06/20 04:58:02;;;;;;;12.02;10.85;;;;;;;;;;3609858;39;20366;-68
2021/06/20 05:00:28;;;;;;;13.93;12.45;;;;;;;;;;3600570;39;20376;-68
2021/06/20 05:02:54;;;;;;;13.23;11.82;;;;;;;;;;3597882;39;20373;-68
2021/06/20 05:05:22;;;;;;;11.75;10.55;;;;;;;;;;3603194;39;20373;-68
2021/06/20 05:07:48;;;;;;;10.10;9.20;;;;;;;;;;3603790;39;20395;-68
2021/06/20 05:10:14;;;;;;;11.00;9.95;;;;;;;;;;3593509;39;20389;-68
2021/06/20 05:12:40;;;;;;;12.88;11.65;;;;;;;;;;3613343;39;20406;-68
2021/06/20 05:15:07;;;;;;;12.82;11.55;;;;;;;;;;3613719;39;20746;-68
2021/06/20 05:17:34;;;;;;;10.43;9.52;;;;;;;;;;3610073;39;20354;-68
2021/06/20 05:20:00;;;;;;;9.83;9.03;;;;;;;;;;3606644;39;20369;-68
2021/06/20 05:22:27;;;;;;;10.73;9.65;;;;;;;;;;3609864;39;20382;-68
2021/06/20 05:24:54;;;;;;;9.93;9.13;;;;;;;;;;3603420;39;20395;-68
2021/06/20 05:27:20;;;;;;;11.93;10.77;;;;;;;;;;3595622;39;20785;-68
2021/06/20 05:29:46;;;;;;;9.95;9.00;;;;;;;;;;3601466;39;20371;-68
2021/06/20 05:32:12;;;;;;;11.85;10.85;;;;;;;;;;3604378;39;20368;-68
2021/06/20 05:34:38;;;;;;;13.15;11.95;;;;;;;;;;3603485;39;20413;-68
2021/06/20 05:37:05;;;;;;;13.98;12.52;;;;;;;;;;3607182;39;20367;-68
2021/06/20 05:39:32;;;;;;;13.43;12.13;;;;;;;;;;3608862;39;20739;-68
2021/06/20 05:41:58;;;;;;;13.07;11.73;;;;;;;;;;3598351;39;20482;-68
2021/06/20 05:44:24;;;;;;;12.50;11.30;;;;;;;;;;3608788;39;20384;-69
2021/06/20 05:46:51;;;;;;;14.45;12.38;;;;;;;;;;3611913;39;20367;-68
2021/06/20 05:49:17;;;;;;;15.55;12.23;;;;;;;;;;3608549;39;20647;-68
2021/06/20 05:51:43;;;;;;;15.20;12.43;;;;;;;;;;3608641;39;20600;-68
2021/06/20 05:54:09;;;;;;;15.93;12.07;;;;;;;;;;3610173;39;20365;-68
2021/06/20 05:56:37;;;;;;;12.82;11.48;;;;;;;;;;3601594;39;20396;-68
2021/06/20 05:59:05;;;;;;;12.27;11.00;;;;;;;;;;3609501;39;20385;-68
2021/06/20 06:01:31;;;;;;;12.43;11.05;;;;;;;;;;3600610;39;20649;-68
2021/06/20 06:03:57;;;;;;;12.80;11.48;;;;;;;;;;3605710;39;20681;-68
2021/06/20 06:06:23;;;;;;;12.32;11.10;;;;;;;;;;3611381;39;20457;-68
2021/06/20 06:08:49;;;;;;;11.63;10.50;;;;;;;;;;3603407;39;20414;-68
2021/06/20 06:11:15;;;;;;;10.98;9.98;;;;;;;;;;3611708;39;20447;-68
2021/06/20 06:13:43;;;;;;;11.20;10.00;;;;;;;;;;3608727;39;20378;-68
2021/06/20 06:16:09;;;;;;;11.75;10.40;;;;;;;;;;3607994;39;20780;-68
2021/06/20 06:18:35;;;;;;;11.65;10.45;;;;;;;;;;3616545;39;20369;-69
2021/06/20 06:21:01;;;;;;;10.95;9.95;;;;;;;;;;3614208;39;20435;-69
2021/06/20 06:23:28;;;;;;;11.52;10.32;;;;;;;;;;3613436;39;20373;-69
2021/06/20 06:25:54;;;;;;;12.35;11.18;;;;;;;;;;3610264;39;20476;-68
2021/06/20 06:28:20;;;;;;;11.63;10.30;;;;;;;;;;3602778;39;20375;-69
2021/06/20 06:30:47;;;;;;;10.93;9.77;;;;;;;;;;3602482;39;20849;-69
2021/06/20 06:33:14;;;;;;;10.98;9.63;;;;;;;;;;3598057;39;20656;-68
2021/06/20 06:35:40;;;;;;;10.65;9.38;;;;;;;;;;3590285;39;20384;-68
2021/06/20 06:38:06;;;;;;;12.63;9.20;;;;;;;;;;3599306;39;20361;-69
2021/06/20 06:40:32;;;;;;;10.90;9.00;;;;;;;;;;3604697;39;20445;-68
2021/06/20 06:42:59;;;;;;;12.27;10.97;;;;;;;;;;3604146;39;20368;-69
2021/06/20 06:45:25;;;;;;;15.35;13.10;;;;;;;;;;3598767;39;20394;-69
2021/06/20 06:47:53;;;;;;;12.35;11.05;;;;;;;;;;3597679;39;20676;-68
2021/06/20 06:50:19;;;;;;;12.30;11.20;;;;;;;;;;3598207;39;20764;-69
2021/06/20 06:52:46;;;;;;;12.00;10.90;;;;;;;;;;3587696;40;20715;-69
2021/06/20 06:55:12;;;;;;;12.55;11.00;;;;;;;;;;3601988;39;20460;-69
2021/06/20 06:57:39;;;;;;;12.35;10.57;;;;;;;;;;3600720;39;20364;-69
2021/06/20 07:00:06;;;;;;;12.80;11.40;;;;;;;;;;3604240;39;20428;-69
2021/06/20 07:02:32;;;;;;;14.57;13.07;;;;;;;;;;3605174;39;20377;-69
2021/06/20 07:05:00;;;;;;;15.48;13.05;;;;;;;;;;3593100;39;20391;-68
2021/06/20 07:07:26;;;;;;;19.70;11.20;;;;;;;;;;3604839;39;20363;-68
2021/06/20 07:09:58;;;;;;;12.00;9.60;;;;;;;;;;3602655;39;20384;-69
2021/06/20 07:12:24;;;;;;;10.48;9.38;;;21.90;99.90;;;;;;3598600;39;20476;-68
2021/06/20 07:14:50;;;;;;;9.20;8.23;;;;;;;;;;3602344;39;20470;-69
2021/06/20 07:17:17;;;;;;;12.57;10.52;;;;;;;;;;3606025;39;20448;-68
2021/06/20 07:19:43;;;;;;;12.83;10.07;;;;;;;;;;3601778;39;20360;-68
2021/06/20 07:22:10;;;;;;;14.15;12.05;;;;;;;;;;3599296;39;20358;-69
2021/06/20 07:24:37;;;;;;;13.23;12.00;;;;;;;;;;3581061;39;20391;-68
2021/06/20 07:27:03;;;;;;;13.15;11.93;;;24.30;99.90;;;;;;3592992;39;20423;-69
2021/06/20 07:29:29;;;;;;;13.60;12.05;;;;;;;;;;3596054;39;20388;-68
2021/06/20 07:31:55;;;;;;;13.55;12.13;;;24.90;99.90;;;;;;3595546;39;20385;-68
2021/06/20 07:34:21;;;;;;;14.63;12.07;;;25.10;99.90;;;;;;3595339;39;20376;-67
2021/06/20 07:36:48;;;;;;;16.57;13.47;;;25.10;99.90;;;;;;3595560;40;20384;-68
2021/06/20 07:39:16;;;;;;;14.25;12.73;;;25.00;99.90;;;;;;3594906;39;20767;-68
2021/06/20 07:41:42;;;;;;;14.13;12.82;;;25.10;99.90;;;;;;3597603;39;20453;-68
2021/06/20 07:44:08;;;;;;;15.07;13.18;;;25.10;99.90;;;;;;3593733;39;20900;-68
2021/06/20 07:46:34;;;;;;;11.00;9.90;;;;;;;;;;3587237;40;20642;-69
2021/06/20 07:49:01;;;;;;;13.65;12.00;;;;;;;;;;3597003;39;20384;-69
2021/06/20 07:51:27;;;;;;;14.40;11.18;;;;;;;;;;3599871;39;20370;-68
2021/06/20 07:53:53;;;;;;;12.27;11.00;;;25.10;99.90;;;;;;3597158;39;20474;-68
2021/06/20 07:56:20;;;;;;;11.00;9.88;;;25.60;99.90;;;;;;3597254;39;20369;-68
2021/06/20 07:58:46;;;;;;;11.57;9.90;;;;;;;;;;3596816;40;20476;-68
2021/06/20 08:01:13;;;;;;;10.50;9.37;;;;;;;;;;3596849;39;20365;-69
2021/06/20 08:03:39;;;;;;;10.70;9.60;;;25.60;99.90;;;;;;3595276;39;20409;-68
2021/06/20 08:06:05;;;;;;;12.75;11.15;;;;;;;;;;3587026;40;20396;-68
2021/06/20 08:08:31;;;;;;;11.20;10.02;;;;;;;;;;3588151;39;20417;-69
2021/06/20 08:10:57;;;;;;;13.32;10.23;;;;;;;;;;3599551;39;20665;-69
2021/06/20 08:13:25;;;;;;;11.65;10.45;;;;;;;;;;3596915;39;20757;-67
2021/06/20 08:15:51;;;;;;;11.90;10.70;;;;;;;;;;3596528;39;20451;-68
2021/06/20 08:18:18;;;;;;;12.07;9.98;;;;;;;;;;3596550;40;20369;-69
2021/06/20 08:20:44;;;;;;;13.00;10.75;;;26.00;99.90;;;;;;3593084;39;20482;-68
2021/06/20 08:23:09;;;;;;;11.80;10.80;;;26.50;99.90;;;;;;3585090;40;20446;-69
2021/06/20 08:25:36;;;;;;;10.63;9.20;;;26.40;99.90;;;;;;3594834;39;20722;-68
2021/06/20 08:28:02;;;;;;;10.73;9.38;;;26.20;99.90;;;;;;3599835;39;20432;-68
2021/06/20 08:30:29;;;;;;;9.07;8.10;;;26.30;99.90;;;;;;3600257;39;20754;-71
2021/06/20 08:32:55;;;;;;;9.98;8.82;;;26.20;99.90;;;;;;3605168;39;20744;-67
2021/06/20 08:35:21;;;;;;;9.18;8.35;;;26.20;99.90;;;;;;3605044;39;20371;-67
2021/06/20 08:37:47;;;;;;;13.80;12.15;;;26.30;99.90;;;;;;3603828;39;20379;-67
2021/06/20 08:40:14;;;;;;;12.77;11.48;;;;;;;;;;3606261;39;20436;-67
2021/06/20 08:42:40;;;;;;;17.67;11.87;;;26.50;99.90;;;;;;3605744;39;20386;-67
2021/06/20 08:45:07;;;;;;;12.27;10.98;;;26.90;99.90;;;;;;3606941;39;20378;-67
2021/06/20 08:47:35;;;;;;;11.50;9.75;;;26.90;99.90;;;;;;3597278;39;20403;-68
2021/06/20 08:50:01;;;;;;;9.93;8.45;;;27.00;99.90;;;;;;3609618;39;20439;-67
2021/06/20 08:52:27;;;;;;;11.77;9.90;;;27.10;99.90;;;;;;3596467;39;20378;-68
2021/06/20 08:55:07;;;;;;;9.38;8.48;;;;;;;;;;3601533;39;20363;-68
2021/06/20 08:57:34;;;;;;;9.07;8.25;;;;;;;;;;3607443;39;20405;-67
2021/06/20 09:00:01;;;;;;;10.75;9.02;;;;;;;;;;3608220;39;20413;-68
2021/06/20 09:02:27;;;;;;;9.10;8.20;;;;;;;;;;3594424;39;20409;-68
2021/06/20 09:04:59;;;;;;;9.73;8.73;;;;;;;;;;3607527;39;20400;-68
2021/06/20 09:07:32;;;;;;;10.57;9.53;;;;;;;;;;3606761;39;20739;-68
2021/06/20 09:10:08;;;;;;;10.80;9.70;;;;;;;;;;3604902;39;20770;-67
2021/06/20 09:12:41;;;;;;;11.88;9.85;;;;;;;;;;3602292;39;20500;-68
2021/06/20 09:15:08;;;;;;;10.90;9.93;;;;;;;;;;3606925;39;20466;-68
2021/06/20 09:17:34;;;;;;;10.15;9.07;;;;;;;;;;3606299;39;20436;-67
2021/06/20 09:20:04;;;;;;;9.43;8.52;;;;;;;;;;3599180;39;20384;-68
2021/06/20 09:22:30;;;;;;;9.40;8.32;;;;;;;;;;3603393;39;20391;-68
2021/06/20 09:25:00;;;;;;;9.75;8.32;;;27.20;99.90;;;;;;3607682;39;20363;-74
2021/06/20 09:27:26;;;;;;;10.02;8.98;;;;;;;;;;3614803;39;20411;-66
2021/06/20 09:29:52;;;;;;;10.02;9.13;;;;;;;;;;3605331;39;20445;-66
2021/06/20 09:32:18;;;;;;;9.40;8.50;;;;;;;;;;3612119;39;20369;-65
2021/06/20 09:34:45;;;;;;;9.27;7.65;;;;;;;;;;3615242;39;20383;-66
2021/06/20 09:37:13;;;;;;;10.88;7.78;;;;;;;;;;3616234;39;20384;-65
2021/06/20 09:39:40;;;;;;;8.43;7.60;;;;;;;;;;3608477;39;20766;-67
2021/06/20 09:42:07;;;;;;;10.68;7.72;;;;;;;;;;3599045;39;20425;-68
2021/06/20 09:44:35;;;;;;;10.40;8.43;;;;;;;;;;3608822;39;20382;-65
2021/06/20 09:47:01;;;;;;;9.35;8.27;;;;;;;;;;3608283;39;20379;-66
2021/06/20 09:49:27;;;;;;;9.45;8.60;;;;;;;;;;3611569;39;20855;-66
2021/06/20 09:51:53;;;;;;;9.77;8.90;;;;;;;;;;3612513;39;20353;-66
2021/06/20 09:54:28;;;;;;;9.47;8.03;;;;;;;;;;3610571;39;20359;-67
2021/06/20 09:56:54;;;;;;;8.65;7.53;;;;;;;;;;3601947;39;20387;-66
2021/06/20 09:59:26;;;;;;;7.80;6.97;;;;;;;;;;3605592;39;20387;-65
2021/06/20 10:01:52;;;;;;;6.85;6.15;;;;;;;;;;3605482;39;20370;-67
2021/06/20 10:04:19;;;;;;;7.77;6.40;;;;;;;;;;3606234;39;20450;-67
2021/06/20 10:06:45;;;;;;;8.63;6.72;;;28.00;99.90;;;;;;3606159;39;20792;-67
2021/06/20 10:09:11;;;;;;;6.82;6.07;;;29.40;96.40;;;;;;3606095;39;20814;-67
2021/06/20 10:11:38;;;;;;;6.93;6.03;;;29.50;95.60;;;;;;3605710;39;20359;-66
2021/06/20 10:14:04;;;;;;;7.10;5.95;;;29.40;95.90;;;;;;3606226;39;20389;-67
2021/06/20 10:16:34;;;;;;;6.65;6.07;;;29.40;95.40;;;;;;3597267;39;20403;-66
2021/06/20 10:19:11;;;;;;;6.77;6.13;;;29.50;95.00;;;;;;3605477;39;20395;-67
2021/06/20 10:21:39;;;;;;;6.88;6.28;;;29.30;95.90;;;;;;3606693;39;20779;-67
2021/06/20 10:24:09;;;;;;;7.95;5.40;;;;;;;;;;3606345;39;20403;-66
2021/06/20 10:26:36;;;;;;;6.13;5.43;;;;;;;;;;3605997;39;20374;-66
2021/06/20 10:29:15;;;;;;;7.22;5.22;;;;;;;;;;3604802;39;20444;-67
2021/06/20 10:31:41;;;;;;;6.15;5.07;;;;;;;;;;3605907;39;20402;-67
2021/06/20 10:34:25;;;;;;;5.80;5.30;;;;;;;;;;3605744;39;20396;-67
2021/06/20 10:36:53;;;;;;;6.70;5.45;;;;;;;;;;3595023;39;20787;-67
2021/06/20 10:39:19;;;;;;;5.53;4.88;;;;;;;;;;3606206;39;20778;-67
2021/06/20 10:41:46;;;;;;;5.75;5.03;;;;;;;;;;3582365;39;20652;-67
2021/06/20 10:44:13;;;;;;;5.97;5.38;;;;;;;;;;3604119;39;20872;-67
2021/06/20 10:46:41;;;;;;;6.20;4.80;;;;;;;;;;3603996;39;20645;-67
2021/06/20 10:49:15;;;;;;;5.32;4.82;;;;;;;;;;3606387;39;20375;-67
2021/06/20 10:51:41;;;;;;;7.07;5.38;;;;;;;;;;3595503;39;20391;-67
2021/06/20 10:54:07;;;;;;;5.75;5.07;;;;;;;;;;3596058;39;20460;-67
2021/06/20 10:56:34;;;;;;;6.47;4.90;;;;;;;;;;3605591;39;20370;-67
2021/06/20 10:59:00;;;;;;;7.77;4.63;;;;;;;;;;3606322;39;20740;-67
2021/06/20 11:01:29;;;;;;;7.13;5.30;;;;;;;;;;3602982;39;20417;-66
2021/06/20 11:04:04;;;;;;;6.05;4.65;;;;;;;;;;3594780;39;20410;-67
2021/06/20 11:06:31;;;;;;;5.50;4.70;;;;;;;;;;3604711;39;20375;-66
2021/06/20 11:08:58;;;;;;;7.35;4.50;;;;;;;;;;3604450;39;20422;-66
2021/06/20 11:11:25;;;;;;;5.22;4.28;;;;;;;;;;3604424;39;20401;-66
2021/06/20 11:14:03;;;;;;;5.97;4.63;;;29.50;95.60;;;;;;3605246;39;20484;-66
2021/06/20 11:16:32;;;;;;;5.30;4.47;;;30.50;91.90;;;;;;3604810;39;20386;-67
2021/06/20 11:19:08;;;;;;;5.80;4.20;;;30.50;90.70;;;;;;3605124;39;20407;-67
2021/06/20 11:21:36;;;;;;;4.60;4.18;;;30.60;91.70;;;;;;3596012;39;20601;-66
2021/06/20 11:24:02;;;;;;;5.90;4.40;;;30.50;91.50;;;;;;3594036;39;20653;-66
2021/06/20 11:26:28;;;;;;;4.40;4.00;;;;;;;;;;3604498;39;20799;-66
2021/06/20 11:28:59;;;;;;;5.10;4.03;;;;;;;;;;3594162;39;20424;-66
2021/06/20 11:31:25;;;;;;;4.93;4.13;;;;;;;;;;3604494;39;20375;-66
2021/06/20 11:33:55;;;;;;;7.10;4.40;;;;;;;;;;3605070;39;20375;-67
2021/06/20 11:36:21;;;;;;;5.47;4.32;;;;;;;;;;3594247;39;20392;-67
2021/06/20 11:38:47;;;;;;;5.82;4.60;;;;;;;;;;3604411;39;20431;-67
2021/06/20 11:41:15;;;;;;;5.00;3.80;;;30.60;91.20;;;;;;3604203;39;20377;-66
2021/06/20 11:43:59;;;;;;;5.63;4.10;;;31.60;89.70;;;;;;3603544;39;20651;-66
2021/06/20 11:46:27;;;;;;;8.30;4.18;;;31.60;89.20;;;;;;3603646;39;20367;-67
2021/06/20 11:48:59;;;;;;;8.35;4.80;;;31.40;90.00;;;;;;3602905;39;20794;-67
2021/06/20 11:51:44;;;;;;;7.38;4.68;;;31.30;90.60;;;;;;3604807;39;20740;-65
2021/06/20 11:54:12;;;;;;;8.85;4.82;;;;;;;;;;3605409;39;20497;-65
2021/06/20 11:56:39;;;;;;;5.35;4.68;;;;;;;;;;3605222;39;20652;-65
2021/06/20 11:59:06;;;;;;;8.57;4.30;;;31.30;89.80;;;;;;3604351;39;20410;-66
2021/06/20 12:01:39;;;;;;;7.90;4.55;;;;;;;;;;3604755;39;20401;-65
2021/06/20 12:04:07;;;;;;;5.95;4.43;;;;;;;;;;3603834;39;20765;-65
2021/06/20 12:06:33;;;;;;;7.07;4.45;;;;;;;;;;3603990;39;20383;-66
2021/06/20 12:08:59;;;;;;;5.35;4.82;;;;;;;;;;3603473;39;20390;-65
2021/06/20 12:11:29;;;;;;;7.85;4.93;;;;;;;;;;3604568;39;20780;-66
2021/06/20 12:13:55;;;;;;;4.88;4.32;;;;;;;;;;3604977;39;20421;-65
2021/06/20 12:16:21;;;;;;;5.28;3.90;;;30.50;90.10;;;;;;3605943;39;20398;-66
2021/06/20 12:18:47;;;;;;;10.07;4.63;;;30.30;90.80;;;;;;3605272;39;20379;-66
2021/06/20 12:21:23;;;;;;;5.93;4.28;;;30.50;90.40;;;;;;3605773;39;20395;-66
2021/06/20 12:23:53;;;;;;;6.85;4.28;;;30.50;90.40;;;;;;3596364;39;20402;-65
2021/06/20 12:26:24;;;;;;;9.00;4.70;;;;;;;;;;3605158;39;20627;-65
2021/06/20 12:28:51;;;;;;;7.87;5.07;;;;;;;;;;3601895;39;20743;-65
2021/06/20 12:31:20;;;;;;;7.03;4.72;;;30.00;91.00;;;;;;3600080;39;20662;-65
2021/06/20 12:33:46;;;;;;;7.03;5.00;;;29.00;92.00;;;;;;3599867;39;20407;-66
2021/06/20 12:36:12;;;;;;;5.90;4.40;;;28.90;92.40;;;;;;3598355;39;20424;-65
2021/06/20 12:38:41;;;;;;;8.30;4.70;;;;;;;;;;3599595;39;20397;-66
2021/06/20 12:41:17;;;;;;;5.60;5.00;;;;;;;;;;3598670;39;20396;-66
2021/06/20 12:43:56;;;;;;;8.93;4.97;;;;;;;;;;3599486;39;20375;-65
2021/06/20 12:46:27;;;;;;;5.97;4.80;;;;;;;;;;3600185;39;20509;-64
2021/06/20 12:48:56;;;;;;;7.10;4.68;;;;;;;;;;3599457;39;20399;-66
2021/06/20 12:51:32;;;;;;;6.93;4.70;;;;;;;;;;3599037;39;20401;-64
2021/06/20 12:54:04;;;;;;;7.50;4.32;;;;;;;;;;3597741;39;20434;-67
2021/06/20 12:56:30;;;;;;;7.47;4.68;;;;;;;;;;3599468;39;20396;-65
2021/06/20 12:58:57;;;;;;;5.60;4.20;;;;;;;;;;3599836;39;20391;-67
2021/06/20 13:01:23;;;;;;;6.07;4.53;;;;;;;;;;3599539;39;20800;-64
2021/06/20 13:03:50;;;;;;;7.07;4.73;;;;;;;;;;3599472;39;20793;-66
2021/06/20 13:06:16;;;;;;;9.60;4.80;;;;;;;;;;3599746;39;20398;-65
2021/06/20 13:08:42;;;;;;;8.15;5.45;;;;;;;;;;3600105;39;20680;-65
2021/06/20 13:11:10;;;;;;;7.15;5.43;;;;;;;;;;3595572;39;20372;-66
2021/06/20 13:13:36;;;;;;;10.25;5.85;;;;;;;;;;3590821;39;20404;-65
2021/06/20 13:16:02;;;;;;;8.80;6.18;;;;;;;;;;3599746;39;20387;-66
2021/06/20 13:18:28;;;;;;;12.93;7.05;;;;;;;;;;3600489;39;20442;-66
2021/06/20 13:20:55;;;;;;;11.52;7.85;;;;;;;;;;3586942;40;22555;-66
2021/06/20 13:23:21;;;;;;;10.48;7.03;;;;;;;;;;3587610;40;20464;-67
2021/06/20 13:25:51;;;;;;;10.82;7.63;;;;;;;;;;3586548;40;20482;-66
2021/06/20 13:28:18;;;;;;;10.15;6.35;;;;;;;;;;3589670;39;20415;-67
2021/06/20 13:30:45;;;;;;;13.63;8.07;;;;;;;;;;3593485;39;20424;-67
2021/06/20 13:33:11;;;;;;;12.63;7.60;;;;;;;;;;3594039;39;20395;-66
2021/06/20 13:35:37;;;;;;;10.63;7.80;;;;;;;;;;3598084;39;20428;-67
2021/06/20 13:38:04;;;;;;;12.82;8.20;;;;;;;;;;3593972;39;20467;-67
2021/06/20 13:40:30;;;;;;;15.70;10.18;;;;;;;;;;3593945;39;20874;-67
2021/06/20 13:42:57;;;;;;;14.25;11.48;;;;;;;;;;3585316;39;20400;-67
2021/06/20 13:45:25;;;;;;;17.17;11.05;;;;;;;;;;3593242;39;20458;-66
2021/06/20 13:47:53;;;;;;;16.27;10.43;;;;;;;;;;3593844;39;20412;-67
2021/06/20 13:50:19;;;;;;;12.90;9.30;;;;;;;;;;3593352;39;20376;-67
2021/06/20 13:52:45;;;;;;;11.70;9.95;;;;;;;;;;3603355;39;20431;-65
2021/06/20 13:55:15;;;;;;;11.25;9.70;;;;;;;;;;3609648;39;20367;-65
2021/06/20 13:57:43;;;;;;;13.50;9.88;;;;;;;;;;3611028;39;20748;-65
2021/06/20 14:00:10;;;;;;;11.80;9.10;;;;;;;;;;3608197;39;20391;-65